sensor_id;sensor_type;location;lat;lon;timestamp;P1;durP1;ratioP1;P2;durP2;ratioP2
42118;SDS011;27783;42.782;23.274;2024-01-07T00:01:26;84.30;;;41.35;;
42118;SDS011;27783;42.782;23.274;2024-01-07T00:03:51;58.95;;;31.95;;
42118;SDS011;27783;42.782;23.274;2024-01-07T00:06:18;54.25;;;27.23;;
42118;SDS011;27783;42.782;23.274;2024-01-07T00:11:14;48.22;;;24.98;;
42118;SDS011;27783;42.782;23.274;2024-01-07T00:13:39;53.33;;;26.27;;
42118;SDS011;27783;42.782;23.274;2024-01-07T00:16:06;44.47;;;24.63;;
42118;SDS011;27783;42.782;23.274;2024-01-07T00:18:32;48.13;;;25.23;;
42118;SDS011;27783;42.782;23.274;2024-01-07T00:20:59;46.55;;;24.73;;
42118;SDS011;27783;42.782;23.274;2024-01-07T00:23:24;39.53;;;22.83;;
42118;SDS011;27783;42.782;23.274;2024-01-07T00:25:52;50.70;;;27.27;;
42118;SDS011;27783;42.782;23.274;2024-01-07T00:28:17;67.88;;;32.80;;
42118;SDS011;27783;42.782;23.274;2024-01-07T00:30:59;53.95;;;30.42;;
42118;SDS011;27783;42.782;23.274;2024-01-07T00:33:25;54.72;;;29.95;;
42118;SDS011;27783;42.782;23.274;2024-01-07T00:35:52;55.85;;;30.65;;
42118;SDS011;27783;42.782;23.274;2024-01-07T00:38:18;44.35;;;26.23;;
42118;SDS011;27783;42.782;23.274;2024-01-07T00:40:44;46.35;;;26.17;;
42118;SDS011;27783;42.782;23.274;2024-01-07T00:43:11;49.33;;;25.75;;
42118;SDS011;27783;42.782;23.274;2024-01-07T00:45:36;54.00;;;26.77;;
42118;SDS011;27783;42.782;23.274;2024-01-07T00:50:31;47.58;;;26.70;;
42118;SDS011;27783;42.782;23.274;2024-01-07T00:52:57;43.33;;;25.35;;
42118;SDS011;27783;42.782;23.274;2024-01-07T00:55:23;47.40;;;23.85;;
42118;SDS011;27783;42.782;23.274;2024-01-07T00:57:50;31.98;;;19.67;;
42118;SDS011;27783;42.782;23.274;2024-01-07T01:00:16;40.03;;;22.05;;
42118;SDS011;27783;42.782;23.274;2024-01-07T01:02:41;34.95;;;21.30;;
42118;SDS011;27783;42.782;23.274;2024-01-07T01:05:07;41.50;;;20.83;;
42118;SDS011;27783;42.782;23.274;2024-01-07T01:07:32;43.25;;;23.38;;
42118;SDS011;27783;42.782;23.274;2024-01-07T01:10:01;41.13;;;21.10;;
42118;SDS011;27783;42.782;23.274;2024-01-07T01:14:52;51.83;;;26.15;;
42118;SDS011;27783;42.782;23.274;2024-01-07T01:17:17;45.15;;;24.08;;
42118;SDS011;27783;42.782;23.274;2024-01-07T01:19:43;46.17;;;25.25;;
42118;SDS011;27783;42.782;23.274;2024-01-07T01:22:08;40.83;;;22.95;;
42118;SDS011;27783;42.782;23.274;2024-01-07T01:24:34;35.30;;;21.42;;
42118;SDS011;27783;42.782;23.274;2024-01-07T01:27:00;37.17;;;19.75;;
42118;SDS011;27783;42.782;23.274;2024-01-07T01:29:26;36.50;;;18.88;;
42118;SDS011;27783;42.782;23.274;2024-01-07T01:31:56;36.20;;;19.92;;
42118;SDS011;27783;42.782;23.274;2024-01-07T01:34:22;29.75;;;19.60;;
42118;SDS011;27783;42.782;23.274;2024-01-07T01:36:52;32.33;;;17.92;;
42118;SDS011;27783;42.782;23.274;2024-01-07T01:39:24;30.00;;;18.77;;
42118;SDS011;27783;42.782;23.274;2024-01-07T01:41:49;28.40;;;17.73;;
42118;SDS011;27783;42.782;23.274;2024-01-07T01:44:16;31.92;;;17.58;;
42118;SDS011;27783;42.782;23.274;2024-01-07T01:46:41;31.48;;;18.35;;
42118;SDS011;27783;42.782;23.274;2024-01-07T01:49:07;31.70;;;18.13;;
42118;SDS011;27783;42.782;23.274;2024-01-07T01:51:33;25.63;;;16.83;;
42118;SDS011;27783;42.782;23.274;2024-01-07T01:54:01;27.98;;;17.00;;
42118;SDS011;27783;42.782;23.274;2024-01-07T01:56:28;31.10;;;18.83;;
42118;SDS011;27783;42.782;23.274;2024-01-07T01:58:54;32.17;;;18.73;;
42118;SDS011;27783;42.782;23.274;2024-01-07T02:01:20;27.88;;;18.60;;
42118;SDS011;27783;42.782;23.274;2024-01-07T02:03:47;42.45;;;23.27;;
42118;SDS011;27783;42.782;23.274;2024-01-07T02:06:12;32.58;;;19.60;;
42118;SDS011;27783;42.782;23.274;2024-01-07T02:08:42;35.92;;;18.58;;
42118;SDS011;27783;42.782;23.274;2024-01-07T02:11:20;43.30;;;22.35;;
42118;SDS011;27783;42.782;23.274;2024-01-07T02:13:48;44.15;;;22.05;;
42118;SDS011;27783;42.782;23.274;2024-01-07T02:16:14;44.13;;;22.95;;
42118;SDS011;27783;42.782;23.274;2024-01-07T02:18:44;35.15;;;19.42;;
42118;SDS011;27783;42.782;23.274;2024-01-07T02:21:10;42.80;;;20.85;;
42118;SDS011;27783;42.782;23.274;2024-01-07T02:23:37;32.30;;;20.23;;
42118;SDS011;27783;42.782;23.274;2024-01-07T02:26:03;35.13;;;20.33;;
42118;SDS011;27783;42.782;23.274;2024-01-07T02:28:29;64.18;;;40.65;;
42118;SDS011;27783;42.782;23.274;2024-01-07T02:30:55;61.30;;;33.10;;
42118;SDS011;27783;42.782;23.274;2024-01-07T02:33:21;55.33;;;27.08;;
42118;SDS011;27783;42.782;23.274;2024-01-07T02:35:48;108.75;;;69.70;;
42118;SDS011;27783;42.782;23.274;2024-01-07T02:38:13;56.17;;;26.88;;
42118;SDS011;27783;42.782;23.274;2024-01-07T02:40:38;52.40;;;28.33;;
42118;SDS011;27783;42.782;23.274;2024-01-07T02:43:04;77.95;;;47.17;;
42118;SDS011;27783;42.782;23.274;2024-01-07T02:45:38;61.45;;;33.42;;
42118;SDS011;27783;42.782;23.274;2024-01-07T02:48:04;52.85;;;28.90;;
42118;SDS011;27783;42.782;23.274;2024-01-07T02:50:37;47.42;;;24.83;;
42118;SDS011;27783;42.782;23.274;2024-01-07T02:53:03;53.55;;;29.35;;
42118;SDS011;27783;42.782;23.274;2024-01-07T02:55:30;64.18;;;29.83;;
42118;SDS011;27783;42.782;23.274;2024-01-07T02:57:57;45.53;;;27.52;;
42118;SDS011;27783;42.782;23.274;2024-01-07T03:00:32;44.08;;;25.00;;
42118;SDS011;27783;42.782;23.274;2024-01-07T03:02:58;33.60;;;20.70;;
42118;SDS011;27783;42.782;23.274;2024-01-07T03:05:28;33.00;;;20.25;;
42118;SDS011;27783;42.782;23.274;2024-01-07T03:07:58;30.80;;;20.73;;
42118;SDS011;27783;42.782;23.274;2024-01-07T03:10:25;35.30;;;19.92;;
42118;SDS011;27783;42.782;23.274;2024-01-07T03:12:52;43.88;;;23.08;;
42118;SDS011;27783;42.782;23.274;2024-01-07T03:15:24;33.50;;;21.15;;
42118;SDS011;27783;42.782;23.274;2024-01-07T03:17:51;30.23;;;19.00;;
42118;SDS011;27783;42.782;23.274;2024-01-07T03:20:17;36.67;;;22.33;;
42118;SDS011;27783;42.782;23.274;2024-01-07T03:22:43;39.80;;;20.85;;
42118;SDS011;27783;42.782;23.274;2024-01-07T03:25:08;34.13;;;21.55;;
42118;SDS011;27783;42.782;23.274;2024-01-07T03:27:34;37.58;;;22.70;;
42118;SDS011;27783;42.782;23.274;2024-01-07T03:29:59;32.92;;;22.83;;
42118;SDS011;27783;42.782;23.274;2024-01-07T03:32:25;36.83;;;20.58;;
42118;SDS011;27783;42.782;23.274;2024-01-07T03:34:50;31.70;;;21.88;;
42118;SDS011;27783;42.782;23.274;2024-01-07T03:37:23;35.72;;;21.77;;
42118;SDS011;27783;42.782;23.274;2024-01-07T03:39:48;35.95;;;20.75;;
42118;SDS011;27783;42.782;23.274;2024-01-07T03:42:14;37.63;;;21.98;;
42118;SDS011;27783;42.782;23.274;2024-01-07T03:44:40;42.33;;;23.92;;
42118;SDS011;27783;42.782;23.274;2024-01-07T03:47:07;42.90;;;26.00;;
42118;SDS011;27783;42.782;23.274;2024-01-07T03:49:35;51.13;;;27.70;;
42118;SDS011;27783;42.782;23.274;2024-01-07T03:52:08;41.22;;;25.42;;
42118;SDS011;27783;42.782;23.274;2024-01-07T03:54:34;47.15;;;29.65;;
42118;SDS011;27783;42.782;23.274;2024-01-07T03:56:59;51.67;;;28.40;;
42118;SDS011;27783;42.782;23.274;2024-01-07T03:59:25;47.25;;;31.13;;
42118;SDS011;27783;42.782;23.274;2024-01-07T04:01:56;49.63;;;31.30;;
42118;SDS011;27783;42.782;23.274;2024-01-07T04:04:23;48.88;;;29.00;;
42118;SDS011;27783;42.782;23.274;2024-01-07T04:06:50;48.15;;;32.40;;
42118;SDS011;27783;42.782;23.274;2024-01-07T04:09:15;87.70;;;46.80;;
42118;SDS011;27783;42.782;23.274;2024-01-07T04:11:43;74.95;;;42.97;;
42118;SDS011;27783;42.782;23.274;2024-01-07T04:16:35;76.85;;;44.22;;
42118;SDS011;27783;42.782;23.274;2024-01-07T04:19:01;67.90;;;36.10;;
42118;SDS011;27783;42.782;23.274;2024-01-07T04:21:30;50.40;;;31.90;;
42118;SDS011;27783;42.782;23.274;2024-01-07T04:23:55;45.00;;;26.73;;
42118;SDS011;27783;42.782;23.274;2024-01-07T04:26:22;53.15;;;32.63;;
42118;SDS011;27783;42.782;23.274;2024-01-07T04:28:48;50.35;;;31.83;;
42118;SDS011;27783;42.782;23.274;2024-01-07T04:31:13;56.90;;;30.95;;
42118;SDS011;27783;42.782;23.274;2024-01-07T04:33:40;44.83;;;29.05;;
42118;SDS011;27783;42.782;23.274;2024-01-07T04:36:06;53.53;;;31.50;;
42118;SDS011;27783;42.782;23.274;2024-01-07T04:38:32;51.20;;;32.30;;
42118;SDS011;27783;42.782;23.274;2024-01-07T04:40:58;45.22;;;27.83;;
42118;SDS011;27783;42.782;23.274;2024-01-07T04:43:23;45.60;;;29.00;;
42118;SDS011;27783;42.782;23.274;2024-01-07T04:45:50;41.92;;;28.63;;
42118;SDS011;27783;42.782;23.274;2024-01-07T04:48:17;43.17;;;27.63;;
42118;SDS011;27783;42.782;23.274;2024-01-07T04:50:42;30.65;;;22.08;;
42118;SDS011;27783;42.782;23.274;2024-01-07T04:53:08;28.65;;;19.52;;
42118;SDS011;27783;42.782;23.274;2024-01-07T04:55:40;24.73;;;19.55;;
42118;SDS011;27783;42.782;23.274;2024-01-07T04:58:05;33.30;;;20.45;;
42118;SDS011;27783;42.782;23.274;2024-01-07T05:00:31;24.70;;;19.25;;
42118;SDS011;27783;42.782;23.274;2024-01-07T05:02:57;23.98;;;18.77;;
42118;SDS011;27783;42.782;23.274;2024-01-07T05:05:22;20.25;;;16.30;;
42118;SDS011;27783;42.782;23.274;2024-01-07T05:07:50;23.63;;;18.38;;
42118;SDS011;27783;42.782;23.274;2024-01-07T05:12:42;27.65;;;21.08;;
42118;SDS011;27783;42.782;23.274;2024-01-07T05:15:10;36.67;;;26.13;;
42118;SDS011;27783;42.782;23.274;2024-01-07T05:17:39;28.02;;;17.25;;
42118;SDS011;27783;42.782;23.274;2024-01-07T05:20:05;21.98;;;17.15;;
42118;SDS011;27783;42.782;23.274;2024-01-07T05:22:32;27.23;;;17.10;;
42118;SDS011;27783;42.782;23.274;2024-01-07T05:25:00;22.35;;;16.05;;
42118;SDS011;27783;42.782;23.274;2024-01-07T05:27:26;22.20;;;18.08;;
42118;SDS011;27783;42.782;23.274;2024-01-07T05:29:52;36.10;;;23.63;;
42118;SDS011;27783;42.782;23.274;2024-01-07T05:32:20;31.65;;;20.90;;
42118;SDS011;27783;42.782;23.274;2024-01-07T05:34:45;28.48;;;21.10;;
42118;SDS011;27783;42.782;23.274;2024-01-07T05:37:10;29.15;;;20.50;;
42118;SDS011;27783;42.782;23.274;2024-01-07T05:39:37;28.05;;;20.65;;
42118;SDS011;27783;42.782;23.274;2024-01-07T05:42:02;29.42;;;20.95;;
42118;SDS011;27783;42.782;23.274;2024-01-07T05:44:29;29.48;;;20.67;;
42118;SDS011;27783;42.782;23.274;2024-01-07T05:46:54;28.33;;;20.42;;
42118;SDS011;27783;42.782;23.274;2024-01-07T05:49:40;37.28;;;22.88;;
42118;SDS011;27783;42.782;23.274;2024-01-07T05:52:06;32.63;;;20.88;;
42118;SDS011;27783;42.782;23.274;2024-01-07T05:54:31;29.13;;;20.75;;
42118;SDS011;27783;42.782;23.274;2024-01-07T05:56:59;30.10;;;21.23;;
42118;SDS011;27783;42.782;23.274;2024-01-07T05:59:34;32.92;;;20.92;;
42118;SDS011;27783;42.782;23.274;2024-01-07T06:02:03;27.55;;;19.92;;
42118;SDS011;27783;42.782;23.274;2024-01-07T06:04:29;28.45;;;22.90;;
42118;SDS011;27783;42.782;23.274;2024-01-07T06:06:57;43.40;;;29.27;;
42118;SDS011;27783;42.782;23.274;2024-01-07T06:09:23;50.38;;;34.10;;
42118;SDS011;27783;42.782;23.274;2024-01-07T06:11:54;37.78;;;25.33;;
42118;SDS011;27783;42.782;23.274;2024-01-07T06:14:21;32.50;;;21.58;;
42118;SDS011;27783;42.782;23.274;2024-01-07T06:16:47;27.85;;;19.92;;
42118;SDS011;27783;42.782;23.274;2024-01-07T06:19:12;30.88;;;21.10;;
42118;SDS011;27783;42.782;23.274;2024-01-07T06:21:38;30.35;;;21.90;;
42118;SDS011;27783;42.782;23.274;2024-01-07T06:24:04;31.65;;;23.10;;
42118;SDS011;27783;42.782;23.274;2024-01-07T06:26:31;23.17;;;20.35;;
42118;SDS011;27783;42.782;23.274;2024-01-07T06:28:58;24.35;;;19.30;;
42118;SDS011;27783;42.782;23.274;2024-01-07T06:31:23;20.98;;;17.48;;
42118;SDS011;27783;42.782;23.274;2024-01-07T06:33:49;25.63;;;17.52;;
42118;SDS011;27783;42.782;23.274;2024-01-07T06:36:15;25.15;;;17.20;;
42118;SDS011;27783;42.782;23.274;2024-01-07T06:38:43;22.58;;;14.80;;
42118;SDS011;27783;42.782;23.274;2024-01-07T06:41:23;20.85;;;17.98;;
42118;SDS011;27783;42.782;23.274;2024-01-07T06:43:48;13.65;;;12.13;;
42118;SDS011;27783;42.782;23.274;2024-01-07T06:46:16;14.55;;;10.05;;
42118;SDS011;27783;42.782;23.274;2024-01-07T06:48:41;13.90;;;10.18;;
42118;SDS011;27783;42.782;23.274;2024-01-07T06:51:06;17.58;;;14.38;;
42118;SDS011;27783;42.782;23.274;2024-01-07T06:53:33;24.27;;;19.63;;
42118;SDS011;27783;42.782;23.274;2024-01-07T06:55:59;24.00;;;17.30;;
42118;SDS011;27783;42.782;23.274;2024-01-07T06:58:25;21.98;;;15.70;;
42118;SDS011;27783;42.782;23.274;2024-01-07T07:00:50;18.73;;;15.98;;
42118;SDS011;27783;42.782;23.274;2024-01-07T07:03:17;36.40;;;18.83;;
42118;SDS011;27783;42.782;23.274;2024-01-07T07:05:42;28.98;;;16.95;;
42118;SDS011;27783;42.782;23.274;2024-01-07T07:08:09;26.52;;;14.25;;
42118;SDS011;27783;42.782;23.274;2024-01-07T07:10:35;17.60;;;15.80;;
42118;SDS011;27783;42.782;23.274;2024-01-07T07:13:00;20.13;;;14.15;;
42118;SDS011;27783;42.782;23.274;2024-01-07T07:15:27;21.73;;;16.58;;
42118;SDS011;27783;42.782;23.274;2024-01-07T07:17:55;27.58;;;17.08;;
42118;SDS011;27783;42.782;23.274;2024-01-07T07:20:22;30.55;;;18.17;;
42118;SDS011;27783;42.782;23.274;2024-01-07T07:22:48;28.60;;;19.27;;
42118;SDS011;27783;42.782;23.274;2024-01-07T07:25:14;35.50;;;22.65;;
42118;SDS011;27783;42.782;23.274;2024-01-07T07:27:39;34.83;;;23.85;;
42118;SDS011;27783;42.782;23.274;2024-01-07T07:30:06;31.88;;;21.02;;
42118;SDS011;27783;42.782;23.274;2024-01-07T07:32:32;39.23;;;24.97;;
42118;SDS011;27783;42.782;23.274;2024-01-07T07:34:57;52.42;;;34.63;;
42118;SDS011;27783;42.782;23.274;2024-01-07T07:37:23;55.08;;;36.28;;
42118;SDS011;27783;42.782;23.274;2024-01-07T07:39:55;55.33;;;34.40;;
42118;SDS011;27783;42.782;23.274;2024-01-07T07:42:21;56.78;;;33.53;;
42118;SDS011;27783;42.782;23.274;2024-01-07T07:44:48;39.65;;;26.00;;
42118;SDS011;27783;42.782;23.274;2024-01-07T07:47:13;48.00;;;29.75;;
42118;SDS011;27783;42.782;23.274;2024-01-07T07:49:45;44.38;;;30.33;;
42118;SDS011;27783;42.782;23.274;2024-01-07T07:52:10;37.42;;;27.35;;
42118;SDS011;27783;42.782;23.274;2024-01-07T07:54:40;30.80;;;22.48;;
42118;SDS011;27783;42.782;23.274;2024-01-07T07:57:07;34.80;;;23.45;;
42118;SDS011;27783;42.782;23.274;2024-01-07T07:59:34;37.58;;;25.00;;
42118;SDS011;27783;42.782;23.274;2024-01-07T08:02:00;38.83;;;27.17;;
42118;SDS011;27783;42.782;23.274;2024-01-07T08:04:26;39.67;;;26.67;;
42118;SDS011;27783;42.782;23.274;2024-01-07T08:06:52;30.25;;;23.25;;
42118;SDS011;27783;42.782;23.274;2024-01-07T08:09:19;38.28;;;25.02;;
42118;SDS011;27783;42.782;23.274;2024-01-07T08:11:44;35.40;;;24.02;;
42118;SDS011;27783;42.782;23.274;2024-01-07T08:14:11;32.28;;;24.27;;
42118;SDS011;27783;42.782;23.274;2024-01-07T08:16:37;41.22;;;29.83;;
42118;SDS011;27783;42.782;23.274;2024-01-07T08:19:02;36.70;;;26.42;;
42118;SDS011;27783;42.782;23.274;2024-01-07T08:21:32;40.85;;;29.65;;
42118;SDS011;27783;42.782;23.274;2024-01-07T08:23:57;31.92;;;26.38;;
42118;SDS011;27783;42.782;23.274;2024-01-07T08:26:26;42.42;;;29.98;;
42118;SDS011;27783;42.782;23.274;2024-01-07T08:28:51;37.30;;;28.33;;
42118;SDS011;27783;42.782;23.274;2024-01-07T08:31:17;31.90;;;22.95;;
42118;SDS011;27783;42.782;23.274;2024-01-07T08:33:43;36.80;;;24.58;;
42118;SDS011;27783;42.782;23.274;2024-01-07T08:36:08;34.10;;;24.35;;
42118;SDS011;27783;42.782;23.274;2024-01-07T08:38:34;63.63;;;48.97;;
42118;SDS011;27783;42.782;23.274;2024-01-07T08:40:59;39.20;;;27.67;;
42118;SDS011;27783;42.782;23.274;2024-01-07T08:43:25;38.88;;;27.20;;
42118;SDS011;27783;42.782;23.274;2024-01-07T08:45:51;42.05;;;28.15;;
42118;SDS011;27783;42.782;23.274;2024-01-07T08:48:17;19.77;;;15.50;;
42118;SDS011;27783;42.782;23.274;2024-01-07T08:50:43;19.23;;;14.57;;
42118;SDS011;27783;42.782;23.274;2024-01-07T08:53:10;11.57;;;8.88;;
42118;SDS011;27783;42.782;23.274;2024-01-07T08:55:35;17.48;;;12.55;;
42118;SDS011;27783;42.782;23.274;2024-01-07T08:58:04;18.52;;;13.15;;
42118;SDS011;27783;42.782;23.274;2024-01-07T09:00:29;14.10;;;12.00;;
42118;SDS011;27783;42.782;23.274;2024-01-07T09:02:56;13.43;;;12.07;;
42118;SDS011;27783;42.782;23.274;2024-01-07T09:05:22;15.50;;;13.15;;
42118;SDS011;27783;42.782;23.274;2024-01-07T09:07:50;14.95;;;13.40;;
42118;SDS011;27783;42.782;23.274;2024-01-07T09:10:19;21.65;;;15.68;;
42118;SDS011;27783;42.782;23.274;2024-01-07T09:12:46;20.20;;;15.60;;
42118;SDS011;27783;42.782;23.274;2024-01-07T09:15:14;22.38;;;16.35;;
42118;SDS011;27783;42.782;23.274;2024-01-07T09:17:43;20.80;;;16.73;;
42118;SDS011;27783;42.782;23.274;2024-01-07T09:20:08;20.92;;;17.50;;
42118;SDS011;27783;42.782;23.274;2024-01-07T09:22:37;21.73;;;17.55;;
42118;SDS011;27783;42.782;23.274;2024-01-07T09:25:02;16.63;;;14.35;;
42118;SDS011;27783;42.782;23.274;2024-01-07T09:27:31;20.80;;;14.77;;
42118;SDS011;27783;42.782;23.274;2024-01-07T09:29:57;13.55;;;12.13;;
42118;SDS011;27783;42.782;23.274;2024-01-07T09:32:22;10.95;;;8.85;;
42118;SDS011;27783;42.782;23.274;2024-01-07T09:34:49;12.80;;;9.27;;
42118;SDS011;27783;42.782;23.274;2024-01-07T09:37:16;6.90;;;5.03;;
42118;SDS011;27783;42.782;23.274;2024-01-07T09:39:43;10.45;;;3.10;;
42118;SDS011;27783;42.782;23.274;2024-01-07T09:42:18;4.73;;;2.20;;
42118;SDS011;27783;42.782;23.274;2024-01-07T09:44:45;3.45;;;1.42;;
42118;SDS011;27783;42.782;23.274;2024-01-07T09:47:15;5.10;;;1.70;;
42118;SDS011;27783;42.782;23.274;2024-01-07T09:49:42;2.83;;;1.23;;
42118;SDS011;27783;42.782;23.274;2024-01-07T09:52:09;4.07;;;1.93;;
42118;SDS011;27783;42.782;23.274;2024-01-07T09:54:36;3.67;;;1.52;;
42118;SDS011;27783;42.782;23.274;2024-01-07T09:57:09;2.47;;;1.50;;
42118;SDS011;27783;42.782;23.274;2024-01-07T09:59:36;7.28;;;4.70;;
42118;SDS011;27783;42.782;23.274;2024-01-07T10:02:04;8.45;;;7.25;;
42118;SDS011;27783;42.782;23.274;2024-01-07T10:04:30;9.43;;;5.93;;
42118;SDS011;27783;42.782;23.274;2024-01-07T10:07:01;8.02;;;6.13;;
42118;SDS011;27783;42.782;23.274;2024-01-07T10:12:07;6.40;;;3.70;;
42118;SDS011;27783;42.782;23.274;2024-01-07T10:14:35;4.90;;;2.45;;
42118;SDS011;27783;42.782;23.274;2024-01-07T10:17:01;4.72;;;1.85;;
42118;SDS011;27783;42.782;23.274;2024-01-07T10:19:27;6.05;;;1.50;;
42118;SDS011;27783;42.782;23.274;2024-01-07T10:22:04;3.90;;;0.40;;
42118;SDS011;27783;42.782;23.274;2024-01-07T10:24:38;2.40;;;0.70;;
42118;SDS011;27783;42.782;23.274;2024-01-07T10:27:05;1.02;;;0.50;;
42118;SDS011;27783;42.782;23.274;2024-01-07T10:29:32;3.65;;;0.57;;
42118;SDS011;27783;42.782;23.274;2024-01-07T10:31:58;4.28;;;0.75;;
42118;SDS011;27783;42.782;23.274;2024-01-07T10:34:24;2.25;;;0.80;;
42118;SDS011;27783;42.782;23.274;2024-01-07T10:36:51;4.20;;;0.70;;
42118;SDS011;27783;42.782;23.274;2024-01-07T10:39:19;3.83;;;0.70;;
42118;SDS011;27783;42.782;23.274;2024-01-07T10:41:48;3.65;;;0.75;;
42118;SDS011;27783;42.782;23.274;2024-01-07T10:44:22;2.10;;;0.70;;
42118;SDS011;27783;42.782;23.274;2024-01-07T10:46:55;4.15;;;0.90;;
42118;SDS011;27783;42.782;23.274;2024-01-07T10:49:22;4.40;;;1.10;;
42118;SDS011;27783;42.782;23.274;2024-01-07T10:52:07;1.92;;;0.77;;
42118;SDS011;27783;42.782;23.274;2024-01-07T10:54:34;2.83;;;0.90;;
42118;SDS011;27783;42.782;23.274;2024-01-07T10:59:57;5.23;;;3.00;;
42118;SDS011;27783;42.782;23.274;2024-01-07T11:02:25;1.27;;;0.45;;
42118;SDS011;27783;42.782;23.274;2024-01-07T11:07:40;2.30;;;0.60;;
42118;SDS011;27783;42.782;23.274;2024-01-07T11:10:16;1.45;;;0.50;;
42118;SDS011;27783;42.782;23.274;2024-01-07T11:12:54;2.20;;;0.45;;
42118;SDS011;27783;42.782;23.274;2024-01-07T11:18:21;1.55;;;0.50;;
42118;SDS011;27783;42.782;23.274;2024-01-07T11:20:49;2.80;;;0.50;;
42118;SDS011;27783;42.782;23.274;2024-01-07T11:23:28;0.75;;;0.40;;
42118;SDS011;27783;42.782;23.274;2024-01-07T11:26:06;3.63;;;0.65;;
42118;SDS011;27783;42.782;23.274;2024-01-07T11:31:07;0.60;;;0.38;;
42118;SDS011;27783;42.782;23.274;2024-01-07T11:33:36;2.30;;;0.50;;
42118;SDS011;27783;42.782;23.274;2024-01-07T11:36:05;4.97;;;0.57;;
42118;SDS011;27783;42.782;23.274;2024-01-07T11:40:59;3.80;;;0.60;;
42118;SDS011;27783;42.782;23.274;2024-01-07T11:43:28;4.07;;;0.80;;
42118;SDS011;27783;42.782;23.274;2024-01-07T11:45:56;2.35;;;0.60;;
42118;SDS011;27783;42.782;23.274;2024-01-07T11:48:21;1.70;;;0.65;;
42118;SDS011;27783;42.782;23.274;2024-01-07T11:50:47;2.95;;;0.52;;
42118;SDS011;27783;42.782;23.274;2024-01-07T11:53:12;1.73;;;0.63;;
42118;SDS011;27783;42.782;23.274;2024-01-07T11:55:39;12.10;;;1.20;;
42118;SDS011;27783;42.782;23.274;2024-01-07T11:58:06;1.20;;;0.35;;
42118;SDS011;27783;42.782;23.274;2024-01-07T12:00:35;2.75;;;0.50;;
42118;SDS011;27783;42.782;23.274;2024-01-07T12:03:01;2.90;;;1.08;;
42118;SDS011;27783;42.782;23.274;2024-01-07T12:05:29;2.28;;;0.60;;
42118;SDS011;27783;42.782;23.274;2024-01-07T12:07:55;3.97;;;0.77;;
42118;SDS011;27783;42.782;23.274;2024-01-07T12:10:23;2.70;;;0.60;;
42118;SDS011;27783;42.782;23.274;2024-01-07T12:12:49;3.30;;;0.70;;
42118;SDS011;27783;42.782;23.274;2024-01-07T12:15:19;2.65;;;0.80;;
42118;SDS011;27783;42.782;23.274;2024-01-07T12:17:56;6.53;;;0.95;;
42118;SDS011;27783;42.782;23.274;2024-01-07T12:20:23;4.30;;;1.10;;
42118;SDS011;27783;42.782;23.274;2024-01-07T12:22:49;5.53;;;1.00;;
42118;SDS011;27783;42.782;23.274;2024-01-07T12:25:20;3.97;;;0.80;;
42118;SDS011;27783;42.782;23.274;2024-01-07T12:27:50;5.00;;;1.05;;
42118;SDS011;27783;42.782;23.274;2024-01-07T12:30:18;4.82;;;0.77;;
42118;SDS011;27783;42.782;23.274;2024-01-07T12:32:45;4.35;;;0.85;;
42118;SDS011;27783;42.782;23.274;2024-01-07T12:35:16;4.22;;;0.80;;
42118;SDS011;27783;42.782;23.274;2024-01-07T12:37:42;2.42;;;0.80;;
42118;SDS011;27783;42.782;23.274;2024-01-07T12:40:07;4.10;;;0.60;;
42118;SDS011;27783;42.782;23.274;2024-01-07T12:42:35;2.25;;;0.63;;
42118;SDS011;27783;42.782;23.274;2024-01-07T12:45:01;4.82;;;0.60;;
42118;SDS011;27783;42.782;23.274;2024-01-07T12:47:27;3.50;;;0.75;;
42118;SDS011;27783;42.782;23.274;2024-01-07T12:49:54;3.53;;;0.70;;
42118;SDS011;27783;42.782;23.274;2024-01-07T12:52:20;3.90;;;0.90;;
42118;SDS011;27783;42.782;23.274;2024-01-07T12:57:13;1.90;;;1.00;;
42118;SDS011;27783;42.782;23.274;2024-01-07T12:59:38;3.17;;;1.00;;
42118;SDS011;27783;42.782;23.274;2024-01-07T13:02:04;1.38;;;0.80;;
42118;SDS011;27783;42.782;23.274;2024-01-07T13:04:29;2.28;;;1.10;;
42118;SDS011;27783;42.782;23.274;2024-01-07T13:06:55;3.53;;;1.10;;
42118;SDS011;27783;42.782;23.274;2024-01-07T13:09:36;3.00;;;1.23;;
42118;SDS011;27783;42.782;23.274;2024-01-07T13:12:03;2.60;;;1.05;;
42118;SDS011;27783;42.782;23.274;2024-01-07T13:14:30;2.35;;;0.93;;
42118;SDS011;27783;42.782;23.274;2024-01-07T13:16:56;3.22;;;1.50;;
42118;SDS011;27783;42.782;23.274;2024-01-07T13:19:21;5.40;;;1.08;;
42118;SDS011;27783;42.782;23.274;2024-01-07T13:21:49;3.55;;;1.23;;
42118;SDS011;27783;42.782;23.274;2024-01-07T13:24:15;3.80;;;1.10;;
42118;SDS011;27783;42.782;23.274;2024-01-07T13:26:43;4.93;;;0.95;;
42118;SDS011;27783;42.782;23.274;2024-01-07T13:29:11;4.07;;;1.02;;
42118;SDS011;27783;42.782;23.274;2024-01-07T13:31:39;2.60;;;0.90;;
42118;SDS011;27783;42.782;23.274;2024-01-07T13:34:05;2.53;;;1.05;;
42118;SDS011;27783;42.782;23.274;2024-01-07T13:36:30;7.82;;;1.30;;
42118;SDS011;27783;42.782;23.274;2024-01-07T13:38:56;1.50;;;1.00;;
42118;SDS011;27783;42.782;23.274;2024-01-07T13:41:23;5.40;;;1.08;;
42118;SDS011;27783;42.782;23.274;2024-01-07T13:43:49;1.67;;;1.10;;
42118;SDS011;27783;42.782;23.274;2024-01-07T13:46:37;3.95;;;1.10;;
42118;SDS011;27783;42.782;23.274;2024-01-07T13:49:05;2.72;;;0.73;;
42118;SDS011;27783;42.782;23.274;2024-01-07T13:51:36;3.65;;;1.20;;
42118;SDS011;27783;42.782;23.274;2024-01-07T13:54:02;3.95;;;1.42;;
42118;SDS011;27783;42.782;23.274;2024-01-07T13:56:31;2.92;;;1.15;;
42118;SDS011;27783;42.782;23.274;2024-01-07T13:59:02;3.70;;;1.67;;
42118;SDS011;27783;42.782;23.274;2024-01-07T14:01:32;3.38;;;1.10;;
42118;SDS011;27783;42.782;23.274;2024-01-07T14:03:57;2.92;;;0.80;;
42118;SDS011;27783;42.782;23.274;2024-01-07T14:06:27;2.00;;;0.80;;
42118;SDS011;27783;42.782;23.274;2024-01-07T14:08:56;1.85;;;0.93;;
42118;SDS011;27783;42.782;23.274;2024-01-07T14:11:21;6.53;;;1.27;;
42118;SDS011;27783;42.782;23.274;2024-01-07T14:13:49;4.40;;;1.63;;
42118;SDS011;27783;42.782;23.274;2024-01-07T14:16:16;6.43;;;1.98;;
42118;SDS011;27783;42.782;23.274;2024-01-07T14:18:42;2.53;;;1.17;;
42118;SDS011;27783;42.782;23.274;2024-01-07T14:21:08;3.25;;;1.00;;
42118;SDS011;27783;42.782;23.274;2024-01-07T14:23:34;3.50;;;1.20;;
42118;SDS011;27783;42.782;23.274;2024-01-07T14:26:02;2.53;;;1.20;;
42118;SDS011;27783;42.782;23.274;2024-01-07T14:28:29;4.60;;;1.85;;
42118;SDS011;27783;42.782;23.274;2024-01-07T14:30:54;4.57;;;2.22;;
42118;SDS011;27783;42.782;23.274;2024-01-07T14:33:21;4.57;;;2.00;;
42118;SDS011;27783;42.782;23.274;2024-01-07T14:35:47;5.30;;;2.27;;
42118;SDS011;27783;42.782;23.274;2024-01-07T14:38:13;6.78;;;2.83;;
42118;SDS011;27783;42.782;23.274;2024-01-07T14:40:39;5.25;;;3.55;;
42118;SDS011;27783;42.782;23.274;2024-01-07T14:45:34;6.45;;;4.20;;
42118;SDS011;27783;42.782;23.274;2024-01-07T14:48:02;5.32;;;4.00;;
42118;SDS011;27783;42.782;23.274;2024-01-07T14:50:30;11.20;;;4.40;;
42118;SDS011;27783;42.782;23.274;2024-01-07T14:52:55;5.75;;;4.18;;